Terminal Aerodrome Forecast
Issued by NWS

Home | Current Version | Previous Version | Text Only | Print | Product List | Glossary On
Versions: 1 2 3 4 5 6 7 8 9 10 11 12 13 14 15 16 17 18 19 20 21 22 23 24 25 26 27 28 29
687
FTUS43 KABR 261124
TAFATY
TAF
KATY 261124Z 2612/2712 VRB04KT 1/2SM FG OVC003
     FM261700 VRB04KT P6SM BKN003
     FM261900 04005KT P6SM BKN008
     FM262100 VRB04KT P6SM OVC010
     FM270100 VRB04KT P6SM OVC025
     FM271100 VRB03KT 1SM BR OVC015=

USA.gov is the U.S. government's official web portal to all federal, state and local government web resources and services.